sensor_id;sensor_type;location;lat;lon;timestamp;P1;durP1;ratioP1;P2;durP2;ratioP2
53939;SDS011;39850;43.324;21.916;2022-08-18T00:03:10;10.0;;;9.0;;
53939;SDS011;39850;43.324;21.916;2022-08-18T00:07:47;10.0;;;9.0;;
53939;SDS011;39850;43.324;21.916;2022-08-18T00:45:34;10.0;;;9.0;;
53939;SDS011;39850;43.324;21.916;2022-08-18T00:50:34;10.0;;;9.0;;
53939;SDS011;39850;43.324;21.916;2022-08-18T00:55:19;10.0;;;9.0;;
53939;SDS011;39850;43.324;21.916;2022-08-18T01:00:09;10.0;;;9.0;;
53939;SDS011;39850;43.324;21.916;2022-08-18T01:05:20;10.0;;;9.0;;
53939;SDS011;39850;43.324;21.916;2022-08-18T01:10:05;10.0;;;9.0;;
53939;SDS011;39850;43.324;21.916;2022-08-18T01:14:45;10.0;;;9.0;;
53939;SDS011;39850;43.324;21.916;2022-08-18T01:19:25;10.0;;;9.0;;
53939;SDS011;39850;43.324;21.916;2022-08-18T01:24:11;10.0;;;9.0;;
53939;SDS011;39850;43.324;21.916;2022-08-18T01:28:50;10.0;;;9.0;;
53939;SDS011;39850;43.324;21.916;2022-08-18T02:06:25;12.0;;;10.0;;
53939;SDS011;39850;43.324;21.916;2022-08-18T02:11:04;12.0;;;10.0;;
53939;SDS011;39850;43.324;21.916;2022-08-18T02:15:41;12.0;;;10.0;;
53939;SDS011;39850;43.324;21.916;2022-08-18T02:20:20;12.0;;;10.0;;
53939;SDS011;39850;43.324;21.916;2022-08-18T02:24:58;11.0;;;10.0;;
53939;SDS011;39850;43.324;21.916;2022-08-18T02:29:38;11.0;;;10.0;;
53939;SDS011;39850;43.324;21.916;2022-08-18T02:34:16;11.0;;;10.0;;
53939;SDS011;39850;43.324;21.916;2022-08-18T02:38:55;11.0;;;10.0;;
53939;SDS011;39850;43.324;21.916;2022-08-18T02:43:33;11.0;;;10.0;;
53939;SDS011;39850;43.324;21.916;2022-08-18T02:48:12;11.0;;;10.0;;
53939;SDS011;39850;43.324;21.916;2022-08-18T02:52:49;11.0;;;10.0;;
53939;SDS011;39850;43.324;21.916;2022-08-18T03:25:18;11.0;;;10.0;;
53939;SDS011;39850;43.324;21.916;2022-08-18T03:29:56;11.0;;;10.0;;
53939;SDS011;39850;43.324;21.916;2022-08-18T03:34:34;11.0;;;10.0;;
53939;SDS011;39850;43.324;21.916;2022-08-18T03:39:13;11.0;;;10.0;;
53939;SDS011;39850;43.324;21.916;2022-08-18T03:43:51;11.0;;;10.0;;
53939;SDS011;39850;43.324;21.916;2022-08-18T03:48:28;11.0;;;10.0;;
53939;SDS011;39850;43.324;21.916;2022-08-18T03:53:05;11.0;;;10.0;;
53939;SDS011;39850;43.324;21.916;2022-08-18T03:57:44;11.0;;;10.0;;
53939;SDS011;39850;43.324;21.916;2022-08-18T04:02:20;11.0;;;10.0;;
53939;SDS011;39850;43.324;21.916;2022-08-18T04:07:06;11.0;;;10.0;;
53939;SDS011;39850;43.324;21.916;2022-08-18T04:11:47;11.0;;;10.0;;
53939;SDS011;39850;43.324;21.916;2022-08-18T04:44:26;12.0;;;9.0;;
53939;SDS011;39850;43.324;21.916;2022-08-18T04:49:03;12.0;;;9.0;;
53939;SDS011;39850;43.324;21.916;2022-08-18T04:53:46;12.0;;;9.0;;
53939;SDS011;39850;43.324;21.916;2022-08-18T04:58:24;12.0;;;9.0;;
53939;SDS011;39850;43.324;21.916;2022-08-18T05:03:01;12.0;;;9.0;;
53939;SDS011;39850;43.324;21.916;2022-08-18T05:07:46;11.0;;;9.0;;
53939;SDS011;39850;43.324;21.916;2022-08-18T05:12:23;11.0;;;9.0;;
53939;SDS011;39850;43.324;21.916;2022-08-18T05:17:04;10.0;;;9.0;;
53939;SDS011;39850;43.324;21.916;2022-08-18T05:21:41;10.0;;;9.0;;
53939;SDS011;39850;43.324;21.916;2022-08-18T05:26:19;10.0;;;9.0;;
53939;SDS011;39850;43.324;21.916;2022-08-18T05:30:57;10.0;;;9.0;;
53939;SDS011;39850;43.324;21.916;2022-08-18T06:06:05;11.0;;;8.0;;
53939;SDS011;39850;43.324;21.916;2022-08-18T06:10:50;11.0;;;8.0;;
53939;SDS011;39850;43.324;21.916;2022-08-18T06:16:04;11.0;;;8.0;;
53939;SDS011;39850;43.324;21.916;2022-08-18T06:21:49;11.0;;;8.0;;
53939;SDS011;39850;43.324;21.916;2022-08-18T06:27:13;11.0;;;8.0;;
53939;SDS011;39850;43.324;21.916;2022-08-18T06:33:01;11.0;;;8.0;;
53939;SDS011;39850;43.324;21.916;2022-08-18T06:38:53;12.0;;;8.0;;
53939;SDS011;39850;43.324;21.916;2022-08-18T06:44:06;13.0;;;9.0;;
53939;SDS011;39850;43.324;21.916;2022-08-18T06:49:04;13.0;;;9.0;;
53939;SDS011;39850;43.324;21.916;2022-08-18T07:27:51;10.0;;;8.0;;
53939;SDS011;39850;43.324;21.916;2022-08-18T07:33:10;10.0;;;8.0;;
53939;SDS011;39850;43.324;21.916;2022-08-18T07:38:32;10.0;;;8.0;;
53939;SDS011;39850;43.324;21.916;2022-08-18T07:44:12;10.0;;;8.0;;
53939;SDS011;39850;43.324;21.916;2022-08-18T07:48:59;10.0;;;8.0;;
53939;SDS011;39850;43.324;21.916;2022-08-18T07:54:28;10.0;;;8.0;;
53939;SDS011;39850;43.324;21.916;2022-08-18T08:00:19;10.0;;;8.0;;
53939;SDS011;39850;43.324;21.916;2022-08-18T08:05:42;10.0;;;8.0;;
53939;SDS011;39850;43.324;21.916;2022-08-18T08:11:06;10.0;;;8.0;;
53939;SDS011;39850;43.324;21.916;2022-08-18T08:46:55;12.0;;;11.0;;
53939;SDS011;39850;43.324;21.916;2022-08-18T08:51:51;12.0;;;11.0;;
53939;SDS011;39850;43.324;21.916;2022-08-18T08:56:46;12.0;;;10.0;;
53939;SDS011;39850;43.324;21.916;2022-08-18T09:01:57;12.0;;;10.0;;
53939;SDS011;39850;43.324;21.916;2022-08-18T09:07:37;12.0;;;10.0;;
53939;SDS011;39850;43.324;21.916;2022-08-18T09:15:37;12.0;;;10.0;;
53939;SDS011;39850;43.324;21.916;2022-08-18T09:21:13;12.0;;;10.0;;
53939;SDS011;39850;43.324;21.916;2022-08-18T09:26:49;13.0;;;10.0;;
53939;SDS011;39850;43.324;21.916;2022-08-18T09:31:28;13.0;;;10.0;;
53939;SDS011;39850;43.324;21.916;2022-08-18T10:09:48;11.0;;;9.0;;
53939;SDS011;39850;43.324;21.916;2022-08-18T10:15:58;14.0;;;13.0;;
53939;SDS011;39850;43.324;21.916;2022-08-18T10:21:18;14.0;;;13.0;;
53939;SDS011;39850;43.324;21.916;2022-08-18T10:25:56;16.0;;;16.0;;
53939;SDS011;39850;43.324;21.916;2022-08-18T10:31:07;16.0;;;16.0;;
53939;SDS011;39850;43.324;21.916;2022-08-18T10:36:00;16.0;;;16.0;;
53939;SDS011;39850;43.324;21.916;2022-08-18T10:41:00;16.0;;;16.0;;
53939;SDS011;39850;43.324;21.916;2022-08-18T10:45:53;16.0;;;16.0;;
53939;SDS011;39850;43.324;21.916;2022-08-18T10:50:50;16.0;;;16.0;;
53939;SDS011;39850;43.324;21.916;2022-08-18T11:26:22;10.0;;;8.0;;
53939;SDS011;39850;43.324;21.916;2022-08-18T11:31:00;10.0;;;8.0;;
53939;SDS011;39850;43.324;21.916;2022-08-18T11:35:57;12.0;;;11.0;;
53939;SDS011;39850;43.324;21.916;2022-08-18T11:40:48;12.0;;;11.0;;
53939;SDS011;39850;43.324;21.916;2022-08-18T11:45:55;10.0;;;9.0;;
53939;SDS011;39850;43.324;21.916;2022-08-18T11:51:02;10.0;;;9.0;;
53939;SDS011;39850;43.324;21.916;2022-08-18T11:56:33;12.0;;;12.0;;
53939;SDS011;39850;43.324;21.916;2022-08-18T12:01:40;12.0;;;12.0;;
53939;SDS011;39850;43.324;21.916;2022-08-18T12:06:33;10.0;;;9.0;;
53939;SDS011;39850;43.324;21.916;2022-08-18T12:11:29;10.0;;;9.0;;
53939;SDS011;39850;43.324;21.916;2022-08-18T12:49:35;9.0;;;7.0;;
53939;SDS011;39850;43.324;21.916;2022-08-18T12:54:18;9.0;;;7.0;;
53939;SDS011;39850;43.324;21.916;2022-08-18T12:59:09;10.0;;;8.0;;
53939;SDS011;39850;43.324;21.916;2022-08-18T13:03:56;10.0;;;8.0;;
53939;SDS011;39850;43.324;21.916;2022-08-18T13:08:38;9.0;;;8.0;;
53939;SDS011;39850;43.324;21.916;2022-08-18T13:13:24;9.0;;;8.0;;
53939;SDS011;39850;43.324;21.916;2022-08-18T13:18:13;10.0;;;8.0;;
53939;SDS011;39850;43.324;21.916;2022-08-18T13:22:56;10.0;;;8.0;;
53939;SDS011;39850;43.324;21.916;2022-08-18T13:28:38;9.0;;;8.0;;
53939;SDS011;39850;43.324;21.916;2022-08-18T13:33:21;9.0;;;8.0;;
53939;SDS011;39850;43.324;21.916;2022-08-18T14:07:01;10.0;;;8.0;;
53939;SDS011;39850;43.324;21.916;2022-08-18T14:11:48;10.0;;;8.0;;
53939;SDS011;39850;43.324;21.916;2022-08-18T14:16:34;10.0;;;8.0;;
53939;SDS011;39850;43.324;21.916;2022-08-18T14:21:15;10.0;;;8.0;;
53939;SDS011;39850;43.324;21.916;2022-08-18T14:25:56;10.0;;;9.0;;
53939;SDS011;39850;43.324;21.916;2022-08-18T14:30:41;10.0;;;9.0;;
53939;SDS011;39850;43.324;21.916;2022-08-18T14:36:01;22.0;;;19.0;;
53939;SDS011;39850;43.324;21.916;2022-08-18T14:40:46;22.0;;;19.0;;
53939;SDS011;39850;43.324;21.916;2022-08-18T14:45:28;35.0;;;29.0;;
53939;SDS011;39850;43.324;21.916;2022-08-18T14:50:10;35.0;;;29.0;;
